タヒチ島 の空港の天気 - METARとTAF

タヒチ・ファアア国際空港 ( NTAA / PPT ) - フランス領ポリネシア タヒチ島
飛行場実況気象(Metar)
観測時間04/26 18:30 TAHT (04/27 04:30 UTC)
風向・風速東 5m/s
視程10km以上
天気現象周辺でしゅう雨
少しの雲 雲底高度 490m
気温28℃
湿度74%
気圧1013hPa
METARNTAA 270430Z 08010KT 9999 VCSH FEW016TCU 28/23 Q1013 NOSIG
過去の天気等 Google飛行場航空写真 Wunderground天気予報

過去48時間のMETAR

飛行場予報(TAF)
発表時間: 4/26 13:00 TAHT (4/26 23:00 UTC)
予報対象時間: 26日14時 TAHT ~ 27日20時 TAHT
風向・風速北東 8m/s
視程10km以上
少しの雲 雲底高度 760m
全天の8割程度の雲 雲底高度 7,620m
TAF NTAA 262300Z 2700/2806 05015KT 9999 FEW025 BKN250